Time;durP1;ratioP1;P1;durP2;ratioP2;P2;SDS_P1;SDS_P2;PMS_P1;PMS_P2;Temp;Humidity;BMP_temperature;BMP_pressure;BME280_temperature;BME280_humidity;BME280_pressure;Samples;Min_cycle;Max_cycle;Signal;HPM_P1;HPM_P2
2022/02/12 00:01:56;;;;;;;10.60;5.30;;;;;;;8.17;40.58;103008.72;4990611;28;20085;-78
2022/02/12 00:04:23;;;;;;;9.80;5.70;;;;;;;8.14;40.87;103014.22;4988945;28;20129;-78
2022/02/12 00:06:49;;;;;;;10.82;6.32;;;;;;;8.11;41.16;103011.56;4990192;28;20054;-77
2022/02/12 00:09:16;;;;;;;11.20;5.70;;;;;;;8.07;41.03;103009.81;4993570;28;20088;-77
2022/02/12 00:11:42;;;;;;;10.23;5.55;;;;;;;8.06;40.96;103016.19;4990198;28;20112;-77
2022/02/12 00:14:09;;;;;;;11.25;5.80;;;;;;;8.03;41.00;103002.72;4986651;28;20124;-78
2022/02/12 00:16:35;;;;;;;9.38;5.60;;;;;;;8.00;41.04;103011.78;5004598;28;20137;-78
2022/02/12 00:19:02;;;;;;;10.80;5.63;;;;;;;7.98;41.21;103018.19;5009201;28;20077;-78
2022/02/12 00:21:28;;;;;;;11.82;6.00;;;;;;;7.96;41.22;103012.78;5007470;28;20269;-77
2022/02/12 00:23:55;;;;;;;9.98;5.30;;;;;;;7.95;41.07;103011.00;5010091;28;20054;-78
2022/02/12 00:26:22;;;;;;;11.82;5.65;;;;;;;7.95;41.13;103005.59;5006337;28;20049;-78
2022/02/12 00:28:49;;;;;;;12.55;5.75;;;;;;;7.94;41.23;103002.91;5007735;28;20053;-78
2022/02/12 00:31:15;;;;;;;11.35;5.80;;;;;;;7.91;41.18;102994.84;5008119;28;20144;-78
2022/02/12 00:33:42;;;;;;;9.85;6.30;;;;;;;7.90;41.24;102994.00;5016074;28;20050;-77
2022/02/12 00:36:10;;;;;;;11.90;5.57;;;;;;;7.88;41.11;102993.13;5012660;28;20050;-78
2022/02/12 00:38:36;;;;;;;10.63;5.80;;;;;;;7.85;41.26;102985.06;5014203;28;20116;-78
2022/02/12 00:41:03;;;;;;;11.05;5.55;;;;;;;7.84;41.11;102987.81;5007912;28;20561;-77
2022/02/12 00:43:30;;;;;;;11.10;5.50;;;;;;;7.81;41.42;102980.66;5009436;28;20494;-78
2022/02/12 00:45:57;;;;;;;8.98;5.78;;;;;;;7.80;41.02;102984.28;4985690;28;20120;-77
2022/02/12 00:48:24;;;;;;;12.95;5.45;;;;;;;7.77;41.42;102987.06;4983834;28;20592;-78
2022/02/12 00:50:50;;;;;;;11.88;6.07;;;;;;;7.76;41.36;102992.50;4997712;28;20142;-78
2022/02/12 00:53:17;;;;;;;10.80;5.40;;;;;;;7.75;41.32;102979.88;5009730;28;20520;-78
2022/02/12 00:55:43;;;;;;;12.43;5.82;;;;;;;7.75;41.51;102988.00;5009705;28;20119;-78
2022/02/12 00:58:10;;;;;;;9.43;5.35;;;;;;;7.72;41.17;102991.69;5018017;28;20128;-78
2022/02/12 01:00:37;;;;;;;11.23;5.47;;;;;;;7.73;41.32;103000.69;5005875;28;20104;-78
2022/02/12 01:03:04;;;;;;;11.15;5.80;;;;;;;7.70;41.19;102990.81;5018851;28;20100;-78
2022/02/12 01:05:30;;;;;;;11.15;5.50;;;;;;;7.67;41.21;102993.56;5022766;28;20467;-78
2022/02/12 01:07:57;;;;;;;10.93;5.95;;;;;;;7.63;40.98;102991.88;5031690;28;20135;-78
2022/02/12 01:10:23;;;;;;;9.80;5.45;;;;;;;7.59;41.11;102990.13;5011138;28;20136;-78
2022/02/12 01:12:50;;;;;;;11.68;5.88;;;;;;;7.54;41.12;102982.13;5023446;28;20049;-78
2022/02/12 01:15:16;;;;;;;10.50;5.35;;;;;;;7.51;41.49;102990.28;5010055;28;20137;-78
2022/02/12 01:17:43;;;;;;;11.73;5.55;;;;;;;7.48;41.47;102976.84;5012662;28;20125;-77
2022/02/12 01:20:10;;;;;;;11.27;5.30;;;;;;;7.46;41.45;102976.00;5008478;28;20046;-78
2022/02/12 01:22:37;;;;;;;10.60;5.68;;;;;;;7.43;41.44;102973.34;5021663;28;20049;-78
2022/02/12 01:25:05;;;;;;;10.07;5.25;;;;;;;7.42;41.37;102981.47;5012760;28;20089;-78
2022/02/12 01:27:32;;;;;;;11.52;5.35;;;;;;;7.39;41.73;102985.16;5012824;28;20038;-78
2022/02/12 01:29:58;;;;;;;11.57;6.47;;;;;;;7.38;41.69;102977.06;5011529;28;20553;-78
2022/02/12 01:32:26;;;;;;;12.02;5.60;;;;;;;7.36;41.76;102974.38;5011315;28;20501;-78
2022/02/12 01:34:53;;;;;;;11.98;5.47;;;;;;;7.36;41.69;102976.19;5010039;28;20088;-78
2022/02/12 01:37:20;;;;;;;10.18;5.05;;;;;;;7.37;41.90;102977.97;5012238;28;20065;-78
2022/02/12 01:39:46;;;;;;;9.77;5.32;;;;;;;7.35;41.79;102969.91;5010442;28;20120;-78
2022/02/12 01:42:14;;;;;;;9.20;5.03;;;;;;;7.35;41.75;102966.31;5012689;28;20089;-78
2022/02/12 01:44:41;;;;;;;8.73;4.80;;;;;;;7.33;41.69;102968.16;5010565;28;20482;-78
2022/02/12 01:47:09;;;;;;;8.20;4.65;;;;;;;7.32;41.87;102964.56;5008658;28;20129;-78
2022/02/12 01:49:37;;;;;;;10.77;4.88;;;;;;;7.31;41.83;102964.59;5016375;28;20046;-78
2022/02/12 01:52:10;;;;;;;10.77;4.93;;;;;;;7.32;41.70;102963.69;5010797;28;20761;-78
2022/02/12 01:54:37;;;;;;;;;;;;;;;7.11;42.26;102957.75;5010313;28;20074;-78
2022/02/12 01:57:05;;;;;;;9.65;4.68;;;;;;;7.26;41.88;102953.88;5011617;28;19987;-80
2022/02/12 01:59:33;;;;;;;10.48;4.80;;;;;;;7.26;41.81;102943.94;5010587;28;20104;-77
2022/02/12 02:02:00;;;;;;;8.80;4.90;;;;;;;7.24;41.94;102953.91;5012046;28;20081;-77
2022/02/12 02:04:27;;;;;;;10.88;4.68;;;;;;;7.23;41.75;102945.84;5009382;28;20056;-77
2022/02/12 02:06:53;;;;;;;11.90;4.85;;;;;;;7.21;42.04;102942.28;5010435;28;20092;-77
2022/02/12 02:09:20;;;;;;;8.27;4.88;;;;;;;7.20;41.78;102944.06;5009214;28;20062;-78
2022/02/12 02:11:48;;;;;;;8.98;4.78;;;;;;;7.21;41.95;102944.97;5010669;28;20103;-78
2022/02/12 02:14:15;;;;;;;8.48;4.50;;;;;;;7.19;41.93;102933.28;5004742;28;20136;-77
2022/02/12 02:16:43;;;;;;;12.35;5.15;;;;;;;7.17;41.87;102935.13;5013854;28;20042;-77
2022/02/12 02:19:10;;;;;;;10.23;5.40;;;;;;;7.15;41.92;102935.19;5011051;28;20092;-78
2022/02/12 02:21:39;;;;;;;9.82;5.03;;;;;;;7.15;41.95;102929.78;5016712;28;20084;-78
2022/02/12 02:24:07;;;;;;;10.35;5.00;;;;;;;7.12;41.84;102927.13;5019770;28;20050;-78
2022/02/12 02:26:35;;;;;;;10.13;4.70;;;;;;;7.10;41.95;102926.25;5010482;28;20412;-78
2022/02/12 02:29:01;;;;;;;12.18;4.70;;;;;;;7.09;42.09;102923.59;5012733;28;20125;-78
2022/02/12 02:31:28;;;;;;;8.93;4.43;;;;;;;7.07;41.78;102917.34;5008783;28;20077;-78
2022/02/12 02:33:56;;;;;;;10.73;4.47;;;;;;;7.05;42.00;102927.28;5011590;28;20050;-78
2022/02/12 02:36:22;;;;;;;10.50;4.65;;;;;;;7.03;41.74;102911.09;5009761;28;20135;-78
2022/02/12 02:38:50;;;;;;;8.30;4.47;;;;;;;7.03;41.95;102912.91;5004014;28;20404;-78
2022/02/12 02:41:16;;;;;;;8.93;5.03;;;;;;;7.00;41.94;102919.25;5008666;28;20456;-77
2022/02/12 02:43:43;;;;;;;8.40;4.50;;;;;;;6.99;41.91;102922.00;5008988;28;20511;-77
2022/02/12 02:46:14;;;;;;;7.80;4.32;;;;;;;6.98;42.13;102920.22;5008047;28;20137;-78
2022/02/12 02:48:41;;;;;;;10.27;4.20;;;;;;;6.95;42.23;102917.56;5014119;28;20049;-78
2022/02/12 02:56:38;;;;;;;7.97;3.90;;;;;;;6.90;41.95;102912.25;4998774;28;20050;-78
2022/02/12 02:59:06;;;;;;;10.52;4.90;;;;;;;6.88;42.19;102912.28;4991591;28;20490;-78
2022/02/12 03:01:33;;;;;;;7.90;4.47;;;;;;;6.88;42.02;102903.28;4989247;28;20058;-78
2022/02/12 03:03:59;;;;;;;10.07;4.53;;;;;;;6.86;42.44;102899.72;4991483;28;20050;-77
2022/02/12 03:06:26;;;;;;;8.88;4.40;;;;;;;6.86;42.18;102899.72;4988257;28;20489;-78
2022/02/12 03:08:55;;;;;;;8.63;4.60;;;;;;;6.86;42.37;102902.44;4989429;28;20062;-78
2022/02/12 03:11:22;;;;;;;8.85;4.20;;;;;;;6.82;42.33;102904.31;4984063;28;20054;-78
2022/02/12 03:13:50;;;;;;;8.00;4.00;;;;;;;6.83;42.16;102899.81;4987694;28;20084;-78
2022/02/12 03:16:18;;;;;;;8.90;4.30;;;;;;;6.79;42.07;102896.25;4998502;28;20074;-78
2022/02/12 03:18:48;;;;;;;7.75;4.55;;;;;;;6.80;42.23;102887.25;5010538;28;20077;-78
2022/02/12 03:21:15;;;;;;;10.52;4.38;;;;;;;6.75;42.29;102890.97;4995708;28;20046;-77
2022/02/12 03:23:42;;;;;;;9.43;3.92;;;;;;;6.75;42.25;102885.56;4975737;28;20126;-77
2022/02/12 03:26:10;;;;;;;11.02;4.53;;;;;;;6.75;42.15;102888.25;5000068;28;20578;-78
2022/02/12 03:28:37;;;;;;;9.05;3.95;;;;;;;6.74;42.64;102881.06;5007621;28;20077;-78
2022/02/12 03:31:03;;;;;;;8.30;4.47;;;;;;;6.74;42.55;102884.66;5007677;28;20071;-78
2022/02/12 03:33:30;;;;;;;9.35;4.30;;;;;;;6.72;42.71;102880.19;5010757;28;20535;-78
2022/02/12 03:35:57;;;;;;;9.68;4.72;;;;;;;6.70;42.43;102880.22;5007012;28;20103;-78
2022/02/12 03:38:26;;;;;;;9.80;4.32;;;;;;;6.69;42.44;102877.56;5009917;28;20096;-78
2022/02/12 03:40:58;;;;;;;10.20;3.90;;;;;;;6.67;42.77;102874.88;5004240;28;20049;-78
2022/02/12 03:43:25;;;;;;;8.05;4.28;;;;;;;6.66;42.44;102872.22;5008225;28;20057;-78
2022/02/12 03:45:53;;;;;;;7.85;4.10;;;;;;;6.64;42.52;102871.34;4989831;28;20086;-78
2022/02/12 03:48:23;;;;;;;10.10;4.72;;;;;;;6.65;42.67;102873.16;4989648;28;20146;-78
2022/02/12 03:50:52;;;;;;;9.02;4.45;;;;;;;6.61;42.71;102875.00;4987620;28;20136;-76
2022/02/12 03:53:19;;;;;;;11.55;4.53;;;;;;;6.61;42.65;102875.00;4990074;28;20058;-78
2022/02/12 03:55:46;;;;;;;8.35;3.88;;;;;;;6.59;42.65;102860.63;4987319;28;20073;-78
2022/02/12 03:58:15;;;;;;;10.52;4.10;;;;;;;6.62;42.64;102865.09;4988252;28;20551;-78
2022/02/12 04:00:43;;;;;;;7.72;4.40;;;;;;;6.60;42.72;102856.13;4997032;28;20058;-78
2022/02/12 04:03:09;;;;;;;9.10;4.50;;;;;;;6.58;42.97;102861.56;5002380;28;20053;-78
2022/02/12 04:05:37;;;;;;;10.23;3.97;;;;;;;6.59;42.62;102860.63;4991577;28;20049;-78
2022/02/12 04:08:04;;;;;;;10.20;4.40;;;;;;;6.59;42.52;102857.06;4988283;28;20085;-77
2022/02/12 04:10:31;;;;;;;10.35;4.30;;;;;;;6.58;42.82;102855.28;4986943;28;20151;-78
2022/02/12 04:12:59;;;;;;;10.43;4.30;;;;;;;6.57;42.91;102857.09;5000355;28;20086;-77
2022/02/12 04:15:26;;;;;;;8.45;4.15;;;;;;;6.57;42.90;102850.81;5012622;28;20145;-78
2022/02/12 04:17:53;;;;;;;8.88;3.92;;;;;;;6.56;42.99;102849.91;5019169;28;20045;-78
2022/02/12 04:20:22;;;;;;;10.55;4.03;;;;;;;6.58;42.82;102850.78;5013682;28;20061;-78
2022/02/12 04:22:51;;;;;;;8.15;4.30;;;;;;;6.56;43.03;102840.94;5018904;28;20057;-78
2022/02/12 04:25:20;;;;;;;9.80;3.92;;;;;;;6.56;42.88;102839.13;5007576;28;20089;-78
2022/02/12 04:27:47;;;;;;;7.22;3.97;;;;;;;6.54;42.73;102838.25;5009860;28;20122;-78
2022/02/12 04:30:14;;;;;;;7.75;3.50;;;;;;;6.53;42.96;102839.16;5007256;28;20154;-77
2022/02/12 04:32:41;;;;;;;7.13;3.92;;;;;;;6.54;42.66;102840.06;5009313;28;20053;-78
2022/02/12 04:35:10;;;;;;;10.27;4.00;;;;;;;6.53;43.01;102836.47;5012820;28;20060;-78
2022/02/12 04:37:37;;;;;;;11.43;4.20;;;;;;;6.53;42.89;102835.56;5029100;28;20056;-78
2022/02/12 04:40:04;;;;;;;8.35;4.00;;;;;;;6.54;42.81;102826.56;5005783;28;20472;-78
2022/02/12 04:42:31;;;;;;;8.55;3.80;;;;;;;6.53;42.93;102831.06;5009589;28;20089;-77
2022/02/12 04:44:58;;;;;;;8.40;4.55;;;;;;;6.53;43.00;102828.38;5004696;28;20061;-78
2022/02/12 04:47:25;;;;;;;9.55;3.72;;;;;;;6.53;42.94;102814.88;5007196;28;20128;-78
2022/02/12 04:49:52;;;;;;;9.00;3.88;;;;;;;6.53;42.79;102820.28;5006197;28;20100;-78
2022/02/12 04:52:20;;;;;;;8.07;3.70;;;;;;;6.53;43.10;102825.66;5009320;28;20579;-80
2022/02/12 04:54:48;;;;;;;7.68;4.50;;;;;;;6.51;42.65;102816.72;5007700;28;20093;-78
2022/02/12 04:57:15;;;;;;;8.27;3.80;;;;;;;6.50;42.72;102814.97;5021064;28;20571;-78
2022/02/12 04:59:42;;;;;;;9.52;3.67;;;;;;;6.49;42.88;102819.47;4994095;28;20191;-78
2022/02/12 05:02:08;;;;;;;6.85;3.47;;;;;;;6.48;42.73;102827.56;5010854;28;20108;-78
2022/02/12 05:04:35;;;;;;;7.20;3.63;;;;;;;6.48;43.15;102823.06;5007803;28;20144;-78
2022/02/12 05:07:02;;;;;;;8.02;3.80;;;;;;;6.49;43.21;102815.88;5020352;28;20089;-78
2022/02/12 05:09:31;;;;;;;8.10;4.63;;;;;;;6.50;43.22;102817.66;5006077;28;20081;-78
2022/02/12 05:11:57;;;;;;;8.15;3.65;;;;;;;6.53;42.98;102824.78;5009036;28;20053;-78
2022/02/12 05:14:29;;;;;;;7.35;4.03;;;;;;;6.56;43.28;102822.03;5007713;28;20404;-78
2022/02/12 05:16:59;;;;;;;9.70;4.00;;;;;;;6.57;43.25;102827.41;5006890;28;20066;-78
2022/02/12 05:19:27;;;;;;;9.00;4.00;;;;;;;6.59;43.25;102814.75;5006464;28;20555;-77
2022/02/12 05:21:54;;;;;;;8.88;4.60;;;;;;;6.61;43.24;102814.72;5007800;28;20547;-78
2022/02/12 05:24:21;;;;;;;7.55;4.20;;;;;;;6.64;43.66;102814.69;5011010;28;20041;-78
2022/02/12 05:26:47;;;;;;;11.55;5.15;;;;;;;6.65;43.28;102808.38;5018100;28;20137;-79
2022/02/12 05:29:14;;;;;;;11.30;4.57;;;;;;;6.66;43.36;102802.94;5007490;28;20488;-78
2022/02/12 05:31:41;;;;;;;7.78;4.57;;;;;;;6.68;43.06;102798.38;5008867;28;20057;-78
2022/02/12 05:34:07;;;;;;;11.80;4.20;;;;;;;6.69;43.33;102794.78;5009164;28;20103;-77
2022/02/12 05:36:34;;;;;;;7.53;4.10;;;;;;;6.70;43.23;102801.94;5009286;28;20054;-78
2022/02/12 05:39:04;;;;;;;9.27;3.85;;;;;;;6.71;43.34;102790.25;5007761;28;20089;-78
2022/02/12 05:41:31;;;;;;;8.57;4.30;;;;;;;6.72;43.35;102789.31;5006186;28;20061;-78
2022/02/12 05:43:58;;;;;;;8.13;3.95;;;;;;;6.73;43.32;102787.50;5008726;28;20100;-79
2022/02/12 05:46:24;;;;;;;9.02;4.18;;;;;;;6.74;43.23;102787.50;5003202;28;20081;-79
2022/02/12 05:48:51;;;;;;;7.63;3.78;;;;;;;6.73;43.06;102787.50;5009973;28;20084;-78
2022/02/12 05:51:18;;;;;;;9.07;3.75;;;;;;;6.72;43.12;102775.81;5010452;28;20146;-79
2022/02/12 05:53:45;;;;;;;8.93;4.32;;;;;;;6.72;43.16;102773.13;5011474;28;20420;-79
2022/02/12 05:56:11;;;;;;;7.03;3.17;;;;;;;6.72;43.17;102772.22;5010637;28;20077;-78
2022/02/12 05:58:38;;;;;;;9.10;3.92;;;;;;;6.69;43.17;102761.50;5011483;28;20142;-78
2022/02/12 06:01:05;;;;;;;7.80;4.05;;;;;;;6.69;43.03;102758.78;5013587;28;20139;-78
2022/02/12 06:03:31;;;;;;;10.63;3.90;;;;;;;6.68;43.02;102757.00;5010663;28;20050;-78
2022/02/12 06:05:58;;;;;;;9.07;3.92;;;;;;;6.66;43.09;102764.28;5009861;28;20089;-78
2022/02/12 06:08:24;;;;;;;10.30;4.63;;;;;;;6.64;42.71;102758.00;5011426;28;20092;-79
2022/02/12 06:10:51;;;;;;;7.68;3.97;;;;;;;6.58;42.75;102753.63;5010248;28;20073;-78
2022/02/12 06:13:18;;;;;;;8.25;3.60;;;;;;;6.55;42.82;102758.19;5011753;28;20081;-79
2022/02/12 06:15:45;;;;;;;8.35;4.15;;;;;;;6.52;42.83;102756.44;5008248;28;20085;-79
2022/02/12 06:18:11;;;;;;;7.28;3.80;;;;;;;6.46;42.91;102759.25;5011265;28;20491;-78
2022/02/12 06:20:38;;;;;;;6.18;3.40;;;;;;;6.41;43.11;102775.53;5009170;28;20512;-78
2022/02/12 06:23:05;;;;;;;8.77;3.47;;;;;;;6.34;42.82;102760.38;5004874;28;20584;-79
2022/02/12 06:25:31;;;;;;;7.22;3.80;;;;;;;6.32;42.92;102766.72;5013593;28;20081;-78
2022/02/12 06:28:00;;;;;;;9.23;4.82;;;;;;;6.27;42.79;102760.50;5009741;28;20132;-78
2022/02/12 06:30:27;;;;;;;11.00;3.78;;;;;;;6.21;43.21;102750.75;5008715;28;20144;-78
2022/02/12 06:32:59;;;;;;;7.85;3.40;;;;;;;6.16;43.06;102760.72;5010503;28;20635;-78
2022/02/12 06:35:27;;;;;;;8.55;3.50;;;;;;;6.12;43.16;102756.28;5009034;28;20521;-78
2022/02/12 06:37:55;;;;;;;7.18;3.25;;;;;;;6.09;43.05;102750.97;4998575;28;20049;-78
2022/02/12 06:40:23;;;;;;;7.53;3.42;;;;;;;6.06;43.37;102751.91;5007170;28;20507;-78
2022/02/12 06:42:50;;;;;;;6.88;3.38;;;;;;;6.05;43.28;102746.53;5011473;28;20050;-78
2022/02/12 06:45:17;;;;;;;8.65;3.60;;;;;;;6.04;43.64;102740.25;5006974;28;20054;-78
2022/02/12 06:47:44;;;;;;;8.02;3.67;;;;;;;6.03;43.73;102741.16;5008700;28;20045;-78
2022/02/12 06:50:10;;;;;;;8.15;3.45;;;;;;;6.05;43.78;102752.81;5014524;28;20100;-78
2022/02/12 06:52:39;;;;;;;7.70;3.92;;;;;;;6.04;43.72;102737.56;5010129;28;20038;-78
2022/02/12 06:55:07;;;;;;;8.45;3.58;;;;;;;6.05;43.88;102736.66;5003241;28;20064;-78
2022/02/12 06:57:34;;;;;;;9.15;3.90;;;;;;;6.06;43.86;102743.81;5011128;28;20100;-78
2022/02/12 07:00:01;;;;;;;8.85;4.20;;;;;;;6.06;43.74;102734.84;5009103;28;20072;-78
2022/02/12 07:02:27;;;;;;;11.40;4.22;;;;;;;6.07;43.88;102737.53;5009367;28;20104;-78
2022/02/12 07:04:55;;;;;;;8.38;3.80;;;;;;;6.07;43.89;102734.81;5005840;28;20062;-78
2022/02/12 07:07:22;;;;;;;9.27;3.85;;;;;;;6.08;43.59;102741.09;5014785;28;20049;-79
2022/02/12 07:09:48;;;;;;;8.50;3.70;;;;;;;6.07;43.97;102734.81;5009553;28;20493;-78
2022/02/12 07:12:15;;;;;;;8.40;3.95;;;;;;;6.08;43.82;102733.91;5023408;28;20053;-79
2022/02/12 07:14:42;;;;;;;7.43;3.80;;;;;;;6.09;43.75;102732.97;5008592;28;20123;-79
2022/02/12 07:17:14;;;;;;;8.47;3.97;;;;;;;6.08;44.04;102741.09;5008924;28;20383;-79
2022/02/12 07:19:42;;;;;;;10.38;4.05;;;;;;;6.10;43.96;102725.75;5009098;28;20054;-79
2022/02/12 07:22:12;;;;;;;9.88;3.90;;;;;;;6.11;44.14;102731.13;5008087;28;20116;-79
2022/02/12 07:24:39;;;;;;;9.10;3.78;;;;;;;6.10;44.10;102737.44;5011591;28;20053;-78
2022/02/12 07:27:06;;;;;;;6.90;3.50;;;;;;;6.13;44.19;102730.22;4999697;28;20042;-77
2022/02/12 07:29:32;;;;;;;8.13;4.35;;;;;;;6.14;44.24;102730.19;5008830;28;20081;-78
2022/02/12 07:31:59;;;;;;;8.73;4.25;;;;;;;6.19;44.31;102738.19;5007617;28;20084;-78
2022/02/12 07:34:25;;;;;;;9.13;3.67;;;;;;;6.22;44.28;102735.44;5009225;28;20424;-82
2022/02/12 07:36:52;;;;;;;6.22;3.65;;;;;;;6.25;44.31;102732.69;5009147;28;20060;-78
2022/02/12 07:39:18;;;;;;;8.35;3.40;;;;;;;6.26;44.24;102735.34;5009726;28;20120;-77
2022/02/12 07:41:45;;;;;;;7.75;3.80;;;;;;;6.28;44.31;102728.13;5007983;28;20078;-77
2022/02/12 07:44:12;;;;;;;10.90;4.25;;;;;;;6.29;44.02;102740.69;5006185;28;20046;-77
2022/02/12 07:46:38;;;;;;;9.93;3.78;;;;;;;6.32;44.32;102731.66;5006792;28;20101;-77
2022/02/12 07:49:05;;;;;;;8.77;3.63;;;;;;;6.34;44.36;102736.09;5009407;28;20603;-77
2022/02/12 07:51:35;;;;;;;9.18;4.22;;;;;;;6.36;44.17;102730.66;5022351;28;20046;-78
2022/02/12 07:54:03;;;;;;;7.50;3.33;;;;;;;6.37;44.27;102722.56;5020738;28;20053;-78
2022/02/12 07:56:30;;;;;;;9.38;4.10;;;;;;;6.38;44.11;102729.72;5029838;28;20405;-78
2022/02/12 07:58:57;;;;;;;9.40;4.07;;;;;;;6.39;44.06;102725.22;5008880;28;20143;-79
2022/02/12 08:01:24;;;;;;;9.23;3.38;;;;;;;6.38;43.95;102723.44;5008697;28;20054;-78
2022/02/12 08:03:58;;;;;;;9.20;3.70;;;;;;;6.37;44.25;102721.66;5010579;28;20053;-78
2022/02/12 08:09:17;;;;;;;7.05;3.28;;;;;;;6.33;44.25;102719.97;5008213;28;20049;-78
2022/02/12 08:11:48;;;;;;;9.20;3.88;;;;;;;6.36;44.36;102717.19;5010865;28;20089;-77
2022/02/12 08:14:15;;;;;;;9.60;3.70;;;;;;;6.37;44.21;102724.34;5007669;28;20504;-77
2022/02/12 08:16:41;;;;;;;9.65;3.30;;;;;;;6.37;44.31;102721.66;5007514;28;20504;-77
2022/02/12 08:19:08;;;;;;;7.93;3.05;;;;;;;6.38;43.88;102712.66;5008549;28;20049;-76
2022/02/12 08:21:35;;;;;;;8.85;3.55;;;;;;;6.39;44.37;102717.13;5003481;28;20084;-76
2022/02/12 08:24:01;;;;;;;8.32;3.70;;;;;;;6.39;44.31;102712.63;5008718;28;20172;-76
2022/02/12 08:26:28;;;;;;;8.60;4.65;;;;;;;6.38;44.33;102699.16;5005308;28;20061;-77
2022/02/12 08:28:54;;;;;;;6.60;3.78;;;;;;;6.39;44.38;102703.66;5008545;28;20104;-76
2022/02/12 08:31:21;;;;;;;9.02;4.55;;;;;;;6.38;44.34;102700.06;5007770;28;20104;-77
2022/02/12 08:33:47;;;;;;;8.98;4.60;;;;;;;6.38;44.24;102691.97;5005697;28;20102;-77
2022/02/12 08:36:14;;;;;;;10.00;3.97;;;;;;;6.39;44.17;102699.13;5006854;28;20092;-76
2022/02/12 08:38:41;;;;;;;7.38;4.20;;;;;;;6.39;44.08;102699.13;5012405;28;20120;-77
2022/02/12 08:41:07;;;;;;;9.35;3.90;;;;;;;6.40;44.52;102694.63;5008080;28;20192;-77
2022/02/12 08:43:34;;;;;;;8.82;4.40;;;;;;;6.42;44.23;102690.97;5005555;28;20297;-77
2022/02/12 08:46:01;;;;;;;10.00;4.13;;;;;;;6.42;44.10;102695.50;5002129;28;20060;-77
2022/02/12 08:48:30;;;;;;;7.90;3.60;;;;;;;6.42;44.60;102688.25;5007958;28;20174;-77
2022/02/12 08:50:58;;;;;;;9.93;4.03;;;;;;;6.44;44.44;102678.34;5002630;28;20133;-77
2022/02/12 08:53:24;;;;;;;10.77;3.55;;;;;;;6.46;44.59;102687.28;5008207;28;20140;-78
2022/02/12 08:55:51;;;;;;;8.85;3.72;;;;;;;6.49;44.37;102686.34;5002577;28;20579;-78
2022/02/12 08:58:17;;;;;;;7.63;3.33;;;;;;;6.52;44.46;102688.06;5009534;28;20117;-77
2022/02/12 09:00:44;;;;;;;9.35;3.83;;;;;;;6.54;44.49;102684.44;5003476;28;20089;-77
2022/02/12 09:03:14;;;;;;;7.45;3.38;;;;;;;6.57;44.78;102676.28;5005852;28;20046;-77
2022/02/12 09:05:41;;;;;;;6.63;3.33;;;;;;;6.60;44.61;102675.31;5004367;28;20542;-80
2022/02/12 09:08:09;;;;;;;6.78;3.55;;;;;;;6.62;44.63;102681.56;5006714;28;20054;-79
2022/02/12 09:10:36;;;;;;;7.88;3.70;;;;;;;6.65;44.63;102682.41;4996154;28;20105;-78
2022/02/12 09:13:03;;;;;;;8.65;4.03;;;;;;;6.69;44.57;102675.13;4988427;28;20320;-79
2022/02/12 09:15:30;;;;;;;8.90;3.95;;;;;;;6.69;44.46;102677.81;4996657;28;20116;-81
2022/02/12 09:17:56;;;;;;;7.90;4.05;;;;;;;6.70;44.63;102661.59;5004732;28;20490;-82
2022/02/12 09:20:23;;;;;;;6.63;3.50;;;;;;;6.72;44.49;102664.25;4998164;28;20050;-77
2022/02/12 09:22:50;;;;;;;7.90;3.25;;;;;;;6.75;44.38;102656.97;5008339;28;20165;-77
2022/02/12 09:25:16;;;;;;;10.80;3.55;;;;;;;6.77;44.50;102663.22;5009353;28;20054;-78
2022/02/12 09:27:43;;;;;;;8.15;3.60;;;;;;;6.79;44.40;102645.19;5005909;28;20125;-80
2022/02/12 09:30:10;;;;;;;7.40;3.45;;;;;;;6.83;44.37;102652.31;5008557;28;20150;-79
2022/02/12 09:32:37;;;;;;;7.35;3.58;;;;;;;6.86;44.56;102656.75;5009733;28;20100;-80
2022/02/12 09:35:06;;;;;;;10.18;4.50;;;;;;;6.87;44.53;102648.59;5010123;28;20497;-80
2022/02/12 09:37:33;;;;;;;11.23;4.50;;;;;;;6.91;44.59;102644.03;5008016;28;20045;-80
2022/02/12 09:39:59;;;;;;;9.52;3.67;;;;;;;6.92;44.46;102651.19;5016399;28;20057;-77
2022/02/12 09:42:27;;;;;;;7.88;3.15;;;;;;;6.94;44.39;102640.34;5014218;28;20041;-79
2022/02/12 09:44:54;;;;;;;8.18;3.67;;;;;;;6.96;44.47;102644.81;5010566;28;20136;-81
2022/02/12 09:47:45;;;;;;;7.93;3.33;;;;;;;7.00;44.15;102641.09;5009846;28;20050;-81
2022/02/12 09:50:12;;;;;;;8.52;3.65;;;;;;;7.02;44.40;102641.06;5006637;28;20054;-80
2022/02/12 09:52:43;;;;;;;8.85;3.22;;;;;;;7.04;44.51;102637.41;5007532;28;20136;-79
2022/02/12 09:55:09;;;;;;;8.68;3.45;;;;;;;7.07;44.64;102634.66;4997570;28;20086;-79
2022/02/12 09:57:36;;;;;;;8.60;3.85;;;;;;;7.10;44.76;102623.75;5008306;28;20049;-79
2022/02/12 10:00:08;;;;;;;10.35;4.10;;;;;;;7.15;44.38;102619.16;5004930;28;20064;-79
2022/02/12 10:02:35;;;;;;;7.72;4.15;;;;;;;7.17;44.47;102624.50;5009463;28;20210;-78
2022/02/12 10:05:26;;;;;;;8.18;4.00;;;;;;;7.23;44.18;102614.44;4999248;28;20054;-77
2022/02/12 10:08:02;;;;;;;8.90;3.67;;;;;;;7.29;44.54;102626.00;5009070;28;20130;-76
2022/02/12 10:10:32;;;;;;;9.07;3.92;;;;;;;7.32;44.84;102620.53;5006069;28;20049;-76
2022/02/12 10:13:15;;;;;;;10.27;3.55;;;;;;;7.40;44.42;102611.31;5013048;28;20054;-77
2022/02/12 10:15:45;;;;;;;8.75;3.60;;;;;;;7.46;44.89;102610.25;5006924;28;20042;-77
2022/02/12 10:18:15;;;;;;;8.98;3.55;;;;;;;7.54;45.05;102602.84;5008036;28;20069;-77
2022/02/12 10:20:43;;;;;;;8.05;3.03;;;;;;;7.62;44.85;102608.94;4991474;28;20076;-77
2022/02/12 10:23:19;;;;;;;6.75;3.35;;;;;;;7.71;44.38;102602.38;5013080;28;20125;-77
2022/02/12 10:26:10;;;;;;;8.13;3.13;;;;;;;7.78;44.54;102599.47;5015477;28;20144;-76
2022/02/12 10:28:40;;;;;;;7.88;3.10;;;;;;;7.84;44.60;102590.28;5010813;28;20448;-76
2022/02/12 10:31:06;;;;;;;8.40;3.08;;;;;;;7.90;44.63;102580.22;5010558;28;20061;-77
2022/02/12 10:33:48;;;;;;;7.68;3.25;;;;;;;8.01;43.85;102582.59;5018170;28;20042;-76
2022/02/12 10:36:17;;;;;;;8.23;3.35;;;;;;;8.05;44.41;102584.31;4997976;28;20057;-77
2022/02/12 10:38:47;;;;;;;8.15;3.35;;;;;;;8.11;44.50;102578.69;4985882;28;20160;-77
2022/02/12 10:41:16;;;;;;;6.00;2.78;;;;;;;8.20;44.50;102572.13;4967016;28;20046;-77
2022/02/12 10:43:49;;;;;;;8.20;3.17;;;;;;;8.28;44.04;102562.84;4981968;28;20073;-77
2022/02/12 10:46:16;;;;;;;8.40;3.03;;;;;;;8.35;44.37;102560.88;4971234;28;20061;-77
2022/02/12 10:48:43;;;;;;;7.18;3.15;;;;;;;8.42;44.36;102551.63;4985007;28;20137;-78
2022/02/12 10:51:14;;;;;;;6.30;3.10;;;;;;;8.50;43.87;102552.28;4987477;28;20069;-79
2022/02/12 10:53:58;;;;;;;7.15;2.47;;;;;;;8.59;43.36;102540.28;4985072;28;20133;-77
2022/02/12 10:56:45;;;;;;;9.63;2.80;;;;;;;8.64;43.03;102544.63;5003791;28;20493;-76
2022/02/12 10:59:13;;;;;;;6.25;3.10;;;;;;;8.71;43.86;102543.50;5009993;28;20108;-77
2022/02/12 11:01:40;;;;;;;6.05;2.97;;;;;;;8.80;43.64;102538.72;5011377;28;20058;-76
2022/02/12 11:04:07;;;;;;;6.70;2.67;;;;;;;8.87;43.45;102540.28;5009404;28;20131;-75
2022/02/12 11:06:36;;;;;;;7.70;2.65;;;;;;;8.95;43.54;102540.94;5009519;28;20050;-76
2022/02/12 11:09:03;;;;;;;5.50;2.70;;;;;;;9.00;43.45;102529.00;5009831;28;20050;-79
2022/02/12 11:11:33;;;;;;;5.93;3.03;;;;;;;9.07;43.20;102517.00;5009521;28;20504;-78
2022/02/12 11:14:00;;;;;;;5.60;2.67;;;;;;;9.13;43.19;102515.94;5007769;28;20505;-77
2022/02/12 11:16:28;;;;;;;6.22;2.40;;;;;;;9.21;43.05;102515.66;5007818;28;20046;-77
2022/02/12 11:18:57;;;;;;;7.28;2.92;;;;;;;9.25;43.05;102507.34;5010627;28;20058;-78
2022/02/12 11:21:27;;;;;;;9.27;2.72;;;;;;;9.31;42.82;102507.13;5009421;28;20046;-77
2022/02/12 11:24:08;;;;;;;6.65;3.13;;;;;;;9.38;41.96;102491.56;5009700;28;20062;-77
2022/02/12 11:26:43;;;;;;;8.77;2.58;;;;;;;9.45;41.65;102494.00;5004436;28;20417;-77
2022/02/12 11:29:40;;;;;;;5.78;2.60;;;;;;;9.50;41.80;102477.53;5008245;28;20049;-78
2022/02/12 11:32:07;;;;;;;5.75;2.50;;;;;;;9.53;42.69;102470.19;5008607;28;20053;-77
2022/02/12 11:34:34;;;;;;;8.05;2.53;;;;;;;9.61;42.81;102453.66;5007251;28;20054;-77
2022/02/12 11:37:18;;;;;;;6.47;2.60;;;;;;;9.69;41.74;102447.94;5009713;28;20181;-80
2022/02/12 11:40:22;;;;;;;4.43;2.30;;;;;;;9.69;41.74;102437.97;5007683;28;20133;-76
2022/02/12 11:43:04;;;;;;;7.13;2.53;;;;;;;9.83;41.71;102445.56;4939498;28;20102;-79
2022/02/12 11:45:37;;;;;;;6.95;2.45;;;;;;;9.88;41.66;102449.84;5001604;28;20079;-77